Providence, Rhode Island
Traffic Map
Current Weather Conditions
Providence, Rhode Island
Clear
Clear
63°
Feels Like: 63°
Wind Chill: 63° Ceiling: Unl
Heat Index: 63° Visibility: 10mi
Dew Point: 60° Wind: 3mph
Humidity: 90% Direction: 210° (SSW)
Pressure: 30.07in Gusts: 0mph
Raw Report DataKPVD 180451Z AUTO 21003KT 10SM CLR 17/16 A3007 RMK AO2 SLP182 T01720156 403060167
Traffic Incident Summary
Active as of:
Severity:
Category:
InformationThere was an issue retrieving the traffic information for this location. Please try a different location or try again shortly.
Advertisements